createdAt,value
2023-03-12T00:02:21.491Z,100968.47
2023-03-12T00:04:54.180Z,100961.75
2023-03-12T00:07:26.952Z,100965.16
2023-03-12T00:09:59.619Z,100965.22
2023-03-12T00:12:32.361Z,100956.66
2023-03-12T00:15:07.220Z,100961.28
2023-03-12T00:17:39.951Z,100954.91
2023-03-12T00:20:13.411Z,100943.25
2023-03-12T00:22:46.113Z,100948.94
2023-03-12T00:25:19.097Z,100951.94
2023-03-12T00:27:51.778Z,100957.59
2023-03-12T00:30:28.338Z,100948.94
2023-03-12T00:33:01.086Z,100943.06
2023-03-12T00:35:34.063Z,100945.59
2023-03-12T00:38:06.663Z,100936.56
2023-03-12T00:40:39.783Z,100928.66
2023-03-12T00:43:12.572Z,100941.28
2023-03-12T00:45:47.135Z,100935.03
2023-03-12T00:48:19.944Z,100928.78
2023-03-12T00:50:52.479Z,100934.22
2023-03-12T00:53:25.481Z,100943.78
2023-03-12T00:55:58.315Z,100937.28
2023-03-12T00:58:30.993Z,100939.44
2023-03-12T01:01:05.185Z,100939.09
2023-03-12T01:03:37.983Z,100942.44
2023-03-12T01:06:10.709Z,100939.44
2023-03-12T01:08:43.287Z,100924.81
2023-03-12T01:11:16.556Z,100922.44
2023-03-12T01:13:49.516Z,100906.13
2023-03-12T01:16:28.088Z,100901.03
2023-03-12T01:19:01.746Z,100894.53
2023-03-12T01:21:34.293Z,100895.78
2023-03-12T01:24:07.862Z,100892.72
2023-03-12T01:26:40.599Z,100894.19
2023-03-12T01:29:13.205Z,100884.47
2023-03-12T01:31:47.229Z,100879.63
2023-03-12T01:34:20.050Z,100880.94
2023-03-12T01:36:52.627Z,100880.28
2023-03-12T01:39:25.750Z,100881.06
2023-03-12T01:41:58.381Z,100874.56
2023-03-12T01:44:31.206Z,100873.25
2023-03-12T01:47:05.239Z,100869.72
2023-03-12T01:49:38.237Z,100868.25
2023-03-12T01:52:12.213Z,100871.31
2023-03-12T01:54:56.504Z,100855.22
2023-03-12T01:57:32.608Z,100853.88
2023-03-12T02:00:08.896Z,100855.34
2023-03-12T02:02:50.394Z,100848.31
2023-03-12T02:05:30.706Z,100845.13
2023-03-12T02:08:03.697Z,100829.94
2023-03-12T02:10:36.530Z,100825.25
2023-03-12T02:13:09.441Z,100817.94
2023-03-12T02:15:42.143Z,100812.75
2023-03-12T02:18:18.003Z,100817.50
2023-03-12T02:20:54.090Z,100829.75
2023-03-12T02:23:29.156Z,100817.94
2023-03-12T02:26:04.647Z,100812.50
2023-03-12T02:28:43.776Z,100824.50
2023-03-12T02:31:19.036Z,100818.75
2023-03-12T02:33:52.949Z,100817.41
2023-03-12T02:36:25.897Z,100816.50
2023-03-12T02:38:58.816Z,100815.91
2023-03-12T02:41:35.078Z,100807.31
2023-03-12T02:44:11.275Z,100801.63
2023-03-12T02:46:45.663Z,100801.91
2023-03-12T02:49:19.898Z,100788.38
2023-03-12T02:51:52.816Z,100774.69
2023-03-12T02:54:26.231Z,100767.59
2023-03-12T02:57:00.275Z,100757.06
2023-03-12T02:59:35.355Z,100750.34
2023-03-12T03:02:12.625Z,100745.16
2023-03-12T03:04:45.473Z,100747.28
2023-03-12T03:07:18.315Z,100746.63
2023-03-12T03:09:50.931Z,100736.88
2023-03-12T03:12:25.069Z,100732.59
2023-03-12T03:14:58.011Z,100719.44
2023-03-12T03:17:30.783Z,100722.63
2023-03-12T03:20:06.050Z,100722.63
2023-03-12T03:22:39.359Z,100718.56
2023-03-12T03:25:12.188Z,100714.00
2023-03-12T03:27:46.336Z,100716.28
2023-03-12T03:30:19.237Z,100724.28
2023-03-12T03:32:54.286Z,100720.09
2023-03-12T03:35:27.468Z,100717.88
2023-03-12T03:38:00.264Z,100714.25
2023-03-12T03:40:32.981Z,100722.38
2023-03-12T03:43:07.108Z,100728.16
2023-03-12T03:45:39.980Z,100726.44
2023-03-12T03:48:12.962Z,100716.03
2023-03-12T03:50:45.661Z,100715.59
2023-03-12T03:53:19.642Z,100705.63
2023-03-12T03:55:52.370Z,100707.44
2023-03-12T03:58:26.397Z,100703.56
2023-03-12T04:00:58.952Z,100700.06
2023-03-12T04:03:31.862Z,100705.66
2023-03-12T04:06:05.899Z,100693.16
2023-03-12T04:08:39.741Z,100699.38
2023-03-12T04:11:16.800Z,100686.38
2023-03-12T04:13:51.461Z,100686.16
2023-03-12T04:16:27.654Z,100662.81
2023-03-12T04:19:01.271Z,100657.81
2023-03-12T04:21:34.253Z,100651.16
2023-03-12T04:24:07.889Z,100643.34
2023-03-12T04:26:41.278Z,100627.47
2023-03-12T04:29:16.013Z,100633.13
2023-03-12T04:31:48.924Z,100624.75
2023-03-12T04:34:22.014Z,100637.91
2023-03-12T04:36:56.596Z,100636.09
2023-03-12T04:39:29.619Z,100645.13
2023-03-12T04:42:03.124Z,100643.34
2023-03-12T04:44:40.966Z,100634.16
2023-03-12T04:47:14.079Z,100632.03
2023-03-12T04:49:47.101Z,100634.50
2023-03-12T04:52:20.153Z,100625.56
2023-03-12T04:54:53.307Z,100626.81
2023-03-12T04:57:26.480Z,100621.81
2023-03-12T05:00:00.707Z,100613.88
2023-03-12T05:02:33.578Z,100617.63
2023-03-12T05:05:07.630Z,100620.00
2023-03-12T05:07:41.459Z,100616.72
2023-03-12T05:10:14.601Z,100619.44
2023-03-12T05:12:47.244Z,100622.03
2023-03-12T05:15:21.424Z,100624.53
2023-03-12T05:17:54.904Z,100623.88
2023-03-12T05:20:27.869Z,100627.03
2023-03-12T05:23:00.561Z,100623.19
2023-03-12T05:25:33.432Z,100634.97
2023-03-12T05:28:06.019Z,100629.75
2023-03-12T05:30:41.595Z,100623.19
2023-03-12T05:33:14.341Z,100617.63
2023-03-12T05:35:47.141Z,100632.47
2023-03-12T05:38:20.295Z,100629.88
2023-03-12T05:40:54.446Z,100624.75
2023-03-12T05:43:27.641Z,100625.69
2023-03-12T05:46:02.423Z,100620.47
2023-03-12T05:48:35.180Z,100624.09
2023-03-12T05:51:08.853Z,100622.97
2023-03-12T05:53:41.812Z,100621.81
2023-03-12T05:56:15.924Z,100625.69
2023-03-12T05:58:49.133Z,100624.53
2023-03-12T06:01:26.886Z,100612.66
2023-03-12T06:04:01.257Z,100614.56
2023-03-12T06:06:34.609Z,100609.69
2023-03-12T06:09:07.302Z,100610.81
2023-03-12T06:11:40.180Z,100596.78
2023-03-12T06:14:12.967Z,100597.56
2023-03-12T06:16:47.276Z,100592.38
2023-03-12T06:19:19.900Z,100591.47
2023-03-12T06:21:54.989Z,100594.41
2023-03-12T06:24:27.915Z,100594.41
2023-03-12T06:27:06.191Z,100578.56
2023-03-12T06:29:38.760Z,100579.69
2023-03-12T06:32:12.942Z,100578.91
2023-03-12T06:34:45.990Z,100571.97
2023-03-12T06:37:18.928Z,100578.69
2023-03-12T06:39:52.259Z,100571.88
2023-03-12T06:42:26.656Z,100577.66
2023-03-12T06:44:59.216Z,100570.75
2023-03-12T06:47:33.219Z,100580.81
2023-03-12T06:50:06.229Z,100576.19
2023-03-12T06:52:40.540Z,100580.72
2023-03-12T06:55:13.247Z,100572.44
2023-03-12T06:57:46.111Z,100567.78
2023-03-12T07:00:19.370Z,100568.34
2023-03-12T07:02:53.507Z,100581.84
2023-03-12T07:05:30.232Z,100583.31
2023-03-12T07:08:03.137Z,100588.75
2023-03-12T07:10:39.229Z,100587.84
2023-03-12T07:13:11.873Z,100577.19
2023-03-12T07:15:45.991Z,100570.16
2023-03-12T07:18:20.108Z,100574.78
2023-03-12T07:20:52.918Z,100578.22
2023-03-12T07:23:25.836Z,100576.06
2023-03-12T07:25:58.759Z,100570.38
2023-03-12T07:28:31.611Z,100574.34
2023-03-12T07:31:05.229Z,100584.78
2023-03-12T07:33:39.377Z,100580.59
2023-03-12T07:36:12.270Z,100590.75
2023-03-12T07:38:44.864Z,100592.34
2023-03-12T07:41:17.502Z,100594.25
2023-03-12T07:43:50.160Z,100596.63
2023-03-12T07:46:22.745Z,100603.19
2023-03-12T07:48:56.809Z,100603.88
2023-03-12T07:51:29.531Z,100604.28
2023-03-12T07:54:02.183Z,100604.22
2023-03-12T07:56:35.825Z,100605.00
2023-03-12T07:59:09.059Z,100602.94
2023-03-12T08:01:43.983Z,100614.38
2023-03-12T08:04:19.064Z,100607.00
2023-03-12T08:06:51.690Z,100608.22
2023-03-12T08:09:24.451Z,100612.44
2023-03-12T08:12:00.263Z,100613.31
2023-03-12T08:14:33.007Z,100617.28
2023-03-12T08:17:05.789Z,100616.72
2023-03-12T08:19:42.193Z,100618.94
2023-03-12T08:22:14.795Z,100618.69
2023-03-12T08:24:47.700Z,100621.84
2023-03-12T08:27:20.237Z,100629.88
2023-03-12T08:29:52.966Z,100632.44
2023-03-12T08:32:25.622Z,100636.31
2023-03-12T08:34:59.756Z,100635.97
2023-03-12T08:37:32.927Z,100638.78
2023-03-12T08:40:13.003Z,100645.97
2023-03-12T08:42:46.242Z,100637.78
2023-03-12T08:45:21.878Z,100636.41
2023-03-12T08:47:54.503Z,100629.09
2023-03-12T08:50:29.555Z,100635.94
2023-03-12T08:53:02.337Z,100631.69
2023-03-12T08:55:39.168Z,100637.50
2023-03-12T08:58:11.930Z,100629.84
2023-03-12T09:00:52.267Z,100645.69
2023-03-12T09:03:25.481Z,100639.59
2023-03-12T09:06:05.193Z,100648.41
2023-03-12T09:08:37.791Z,100647.06
2023-03-12T09:11:11.086Z,100657.72
2023-03-12T09:14:16.871Z,100659.78
2023-03-12T09:16:37.071Z,100654.50
2023-03-12T09:19:09.777Z,100653.72
2023-03-12T09:21:43.913Z,100658.78
2023-03-12T09:24:16.756Z,100661.53
2023-03-12T09:26:49.407Z,100671.50
2023-03-12T09:29:22.328Z,100670.06
2023-03-12T09:31:55.403Z,100679.19
2023-03-12T09:34:28.042Z,100671.94
2023-03-12T09:37:02.299Z,100680.81
2023-03-12T09:39:35.387Z,100683.31
2023-03-12T09:42:16.640Z,100687.19
2023-03-12T09:44:49.977Z,100688.88
2023-03-12T09:47:26.453Z,100683.59
2023-03-12T09:50:02.456Z,100669.50
2023-03-12T09:52:39.690Z,100674.25
2023-03-12T09:55:14.953Z,100671.34
2023-03-12T09:57:49.138Z,100672.28
2023-03-12T10:00:22.754Z,100675.88
2023-03-12T10:03:10.322Z,100678.31
2023-03-12T10:05:46.938Z,100676.97
2023-03-12T10:08:28.866Z,100685.94
2023-03-12T10:11:09.432Z,100683.81
2023-03-12T10:13:58.397Z,100690.22
2023-03-12T10:16:36.636Z,100676.59
2023-03-12T10:19:22.602Z,100678.69
2023-03-12T10:22:02.105Z,100677.88
2023-03-12T10:24:42.753Z,100684.91
2023-03-12T10:27:16.660Z,100674.84
2023-03-12T10:29:51.341Z,100682.72
2023-03-12T10:32:27.567Z,100672.56
2023-03-12T10:35:01.708Z,100682.00
2023-03-12T10:37:38.527Z,100686.72
2023-03-12T10:40:15.500Z,100690.38
2023-03-12T10:42:48.489Z,100697.94
2023-03-12T10:45:24.975Z,100698.53
2023-03-12T10:48:00.120Z,100693.28
2023-03-12T10:50:33.400Z,100704.25
2023-03-12T10:53:20.263Z,100706.88
2023-03-12T10:56:01.862Z,100717.94
2023-03-12T10:58:36.524Z,100724.66
2023-03-12T11:01:21.017Z,100719.97
2023-03-12T11:03:54.481Z,100719.28
2023-03-12T11:06:28.768Z,100720.84
2023-03-12T11:09:21.656Z,100726.53
2023-03-12T11:11:57.523Z,100721.06
2023-03-12T11:14:31.374Z,100721.81
2023-03-12T11:17:22.155Z,100717.31
2023-03-12T11:19:54.854Z,100711.09
2023-03-12T11:22:29.257Z,100716.34
2023-03-12T11:25:03.033Z,100716.34
2023-03-12T11:27:41.793Z,100701.88
2023-03-12T11:30:18.031Z,100708.56
2023-03-12T11:32:51.862Z,100708.13
2023-03-12T11:35:33.922Z,100704.72
2023-03-12T11:38:15.405Z,100698.81
2023-03-12T11:40:58.391Z,100700.81
2023-03-12T11:43:43.578Z,100693.53
2023-03-12T11:46:28.045Z,100686.78
2023-03-12T11:49:08.721Z,100695.50
2023-03-12T11:51:45.828Z,100698.03
2023-03-12T11:54:39.714Z,100693.84
2023-03-12T11:57:17.123Z,100687.66
2023-03-12T12:00:00.491Z,100684.66
2023-03-12T12:02:54.514Z,100683.13
2023-03-12T12:05:32.809Z,100691.47
2023-03-12T12:08:17.132Z,100687.88
2023-03-12T12:10:53.587Z,100699.41
2023-03-12T12:13:31.585Z,100703.84
2023-03-12T12:16:11.741Z,100690.13
2023-03-12T12:18:52.469Z,100702.41
2023-03-12T12:21:34.157Z,100694.94
2023-03-12T12:24:13.052Z,100681.66
2023-03-12T12:26:50.819Z,100684.34
2023-03-12T12:29:29.734Z,100680.50
2023-03-12T12:32:05.556Z,100663.19
2023-03-12T12:34:45.948Z,100668.78
2023-03-12T12:37:23.079Z,100662.84
2023-03-12T12:40:01.180Z,100668.75
2023-03-12T12:42:36.800Z,100666.03
2023-03-12T12:45:12.639Z,100660.59
2023-03-12T12:47:48.896Z,100643.38
2023-03-12T12:50:23.393Z,100627.59
2023-03-12T12:52:59.129Z,100625.31
2023-03-12T12:55:34.745Z,100617.91
2023-03-12T12:58:13.230Z,100623.38
2023-03-12T13:00:48.317Z,100632.72
2023-03-12T13:03:23.869Z,100626.03
2023-03-12T13:05:57.897Z,100626.44
2023-03-12T13:08:36.273Z,100636.63
2023-03-12T13:11:24.243Z,100633.56
2023-03-12T13:14:21.369Z,100628.84
2023-03-12T13:17:07.651Z,100623.78
2023-03-12T13:19:44.948Z,100637.34
2023-03-12T13:22:36.917Z,100641.28
2023-03-12T13:25:19.064Z,100643.16
2023-03-12T13:27:58.413Z,100640.78
2023-03-12T13:30:47.755Z,100647.06
2023-03-12T13:33:21.822Z,100643.91
2023-03-12T13:36:06.528Z,100656.53
2023-03-12T13:39:21.534Z,100669.00
2023-03-12T13:41:56.297Z,100663.03
2023-03-12T13:44:38.617Z,100665.44
2023-03-12T13:47:23.756Z,100667.75
2023-03-12T13:50:00.840Z,100679.56
2023-03-12T13:52:39.102Z,100679.59
2023-03-12T13:55:23.381Z,100691.38
2023-03-12T13:57:58.747Z,100685.94
2023-03-12T14:00:37.453Z,100673.34
2023-03-12T14:03:17.369Z,100689.06
2023-03-12T14:05:54.342Z,100687.63
2023-03-12T14:08:54.481Z,100696.25
2023-03-12T14:11:45.639Z,100689.19
2023-03-12T14:14:41.642Z,100686.03
2023-03-12T14:17:18.591Z,100685.25
2023-03-12T14:19:58.255Z,100691.53
2023-03-12T14:22:34.088Z,100688.38
2023-03-12T14:25:15.707Z,100681.31
2023-03-12T14:27:50.128Z,100679.34
2023-03-12T14:30:26.198Z,100674.63
2023-03-12T14:33:03.688Z,100669.91
2023-03-12T14:35:42.368Z,100674.25
2023-03-12T14:38:19.037Z,100673.03
2023-03-12T14:40:56.618Z,100659.28
2023-03-12T14:43:33.142Z,100667.13
2023-03-12T14:46:14.865Z,100666.34
2023-03-12T14:48:49.740Z,100660.88
2023-03-12T14:51:25.340Z,100670.69
2023-03-12T14:54:04.272Z,100668.72
2023-03-12T14:56:37.155Z,100659.28
2023-03-12T14:59:24.034Z,100656.09
2023-03-12T15:02:01.574Z,100655.31
2023-03-12T15:04:36.250Z,100655.28
2023-03-12T15:07:12.883Z,100658.44
2023-03-12T15:09:49.895Z,100657.66
2023-03-12T15:12:25.067Z,100647.44
2023-03-12T15:15:07.123Z,100649.00
2023-03-12T15:17:40.011Z,100654.47
2023-03-12T15:20:16.298Z,100649.78
2023-03-12T15:22:49.975Z,100658.41
2023-03-12T15:25:23.973Z,100638.75
2023-03-12T15:28:06.063Z,100636.38
2023-03-12T15:30:41.288Z,100622.25
2023-03-12T15:33:25.771Z,100639.50
2023-03-12T15:36:02.373Z,100628.06
2023-03-12T15:38:38.344Z,100621.47
2023-03-12T15:41:23.127Z,100635.56
2023-03-12T15:43:58.607Z,100646.59
2023-03-12T15:46:34.065Z,100645.78
2023-03-12T15:49:07.341Z,100648.94
2023-03-12T15:51:40.582Z,100641.84
2023-03-12T15:54:27.310Z,100648.53
2023-03-12T15:57:22.551Z,100639.88
2023-03-12T16:00:17.596Z,100644.19
2023-03-12T16:02:54.622Z,100635.13
2023-03-12T16:05:31.888Z,100637.03
2023-03-12T16:08:16.385Z,100641.00
2023-03-12T16:10:50.673Z,100639.44
2023-03-12T16:13:29.983Z,100625.66
2023-03-12T16:16:05.693Z,100630.75
2023-03-12T16:18:40.271Z,100629.94
2023-03-12T16:21:13.460Z,100622.84
2023-03-12T16:23:46.244Z,100638.97
2023-03-12T16:26:19.716Z,100631.09
2023-03-12T16:28:52.677Z,100627.16
2023-03-12T16:31:25.573Z,100638.91
2023-03-12T16:34:00.124Z,100643.97
2023-03-12T16:36:32.884Z,100632.16
2023-03-12T16:39:06.030Z,100632.16
2023-03-12T16:41:39.607Z,100644.72
2023-03-12T16:44:17.088Z,100642.59
2023-03-12T16:46:50.267Z,100640.72
2023-03-12T16:49:24.568Z,100634.75
2023-03-12T16:51:57.709Z,100632.84
2023-03-12T16:54:30.374Z,100632.75
2023-03-12T16:57:03.262Z,100624.94
2023-03-12T16:59:38.143Z,100619.88
2023-03-12T17:02:16.605Z,100634.66
2023-03-12T17:04:51.110Z,100629.56
2023-03-12T17:07:24.109Z,100629.44
2023-03-12T17:09:57.390Z,100624.00
2023-03-12T17:12:32.223Z,100616.91
2023-03-12T17:15:09.057Z,100614.50
2023-03-12T17:17:42.037Z,100607.50
2023-03-12T17:20:18.032Z,100594.19
2023-03-12T17:22:51.350Z,100604.06
2023-03-12T17:25:27.217Z,100604.00
2023-03-12T17:28:00.469Z,100619.16
2023-03-12T17:30:34.427Z,100605.13
2023-03-12T17:33:10.450Z,100603.47
2023-03-12T17:35:47.002Z,100612.13
2023-03-12T17:38:20.520Z,100617.34
2023-03-12T17:40:53.339Z,100618.66
2023-03-12T17:43:26.374Z,100603.47
2023-03-12T17:45:59.039Z,100608.81
2023-03-12T17:48:32.160Z,100603.28
2023-03-12T17:51:08.600Z,100601.72
2023-03-12T17:53:42.183Z,100602.22
2023-03-12T17:56:17.892Z,100610.28
2023-03-12T17:58:50.877Z,100603.28
2023-03-12T18:01:23.472Z,100603.63
2023-03-12T18:03:56.332Z,100596.50
2023-03-12T18:06:30.444Z,100593.34
2023-03-12T18:09:04.013Z,100599.28
2023-03-12T18:11:36.982Z,100598.97
2023-03-12T18:14:09.716Z,100597.06
2023-03-12T18:16:42.491Z,100589.97
2023-03-12T18:19:16.079Z,100588.28
2023-03-12T18:21:50.167Z,100588.22
2023-03-12T18:24:23.384Z,100585.13
2023-03-12T18:26:56.360Z,100596.56
2023-03-12T18:29:29.031Z,100586.03
2023-03-12T18:32:01.829Z,100592.25
2023-03-12T18:34:34.572Z,100582.38
2023-03-12T18:37:08.693Z,100587.63
2023-03-12T18:39:41.686Z,100583.75
2023-03-12T18:42:14.373Z,100575.91
2023-03-12T18:44:47.272Z,100578.97
2023-03-12T18:47:20.325Z,100585.81
2023-03-12T18:49:55.198Z,100586.81
2023-03-12T18:52:29.264Z,100592.78
2023-03-12T18:55:02.215Z,100592.44
2023-03-12T18:57:34.892Z,100593.38
2023-03-12T19:00:13.272Z,100579.31
2023-03-12T19:02:48.093Z,100579.81
2023-03-12T19:05:21.606Z,100584.44
2023-03-12T19:07:55.893Z,100570.41
2023-03-12T19:10:29.005Z,100575.91
2023-03-12T19:13:02.215Z,100578.25
2023-03-12T19:15:38.159Z,100573.88
2023-03-12T19:18:10.970Z,100568.66
2023-03-12T19:20:43.722Z,100574.41
2023-03-12T19:23:19.998Z,100566.97
2023-03-12T19:25:53.100Z,100574.06
2023-03-12T19:28:28.487Z,100565.41
2023-03-12T19:31:01.853Z,100569.00
2023-03-12T19:33:35.050Z,100553.97
2023-03-12T20:10:39.469Z,100496.00
2023-03-12T20:39:07.731Z,100439.00
2023-03-12T20:41:42.719Z,100432.22
2023-03-12T20:44:15.946Z,100427.19
2023-03-12T20:46:48.721Z,100422.25
2023-03-12T20:49:21.564Z,100424.59
2023-03-12T20:51:54.231Z,100418.72
2023-03-12T20:54:28.578Z,100413.94
2023-03-12T20:57:01.376Z,100421.84
2023-03-12T20:59:34.047Z,100405.25
2023-03-12T21:02:06.830Z,100402.69
2023-03-12T21:04:45.424Z,100384.91
2023-03-12T21:07:23.355Z,100383.25
2023-03-12T21:32:23.413Z,100349.91
2023-03-12T21:41:13.339Z,100346.00
2023-03-12T21:46:35.825Z,100328.03
2023-03-12T22:17:17.555Z,100278.19
2023-03-12T22:19:51.768Z,100276.66
2023-03-12T22:22:24.587Z,100264.03
2023-03-12T22:24:57.257Z,100254.75
2023-03-12T22:27:30.160Z,100256.25
2023-03-12T22:30:03.328Z,100258.59
2023-03-12T22:32:37.672Z,100238.34
2023-03-12T22:35:10.811Z,100226.56
2023-03-12T22:37:45.260Z,100229.69
2023-03-12T22:40:18.189Z,100202.69
2023-03-12T22:42:51.151Z,100201.56
2023-03-12T22:45:24.152Z,100187.88
2023-03-12T22:47:58.417Z,100192.22
2023-03-12T22:50:31.386Z,100178.47
2023-03-12T22:53:03.982Z,100176.53
2023-03-12T22:55:36.804Z,100174.97
2023-03-12T22:58:10.434Z,100171.06
2023-03-12T23:00:43.264Z,100160.09
2023-03-12T23:03:17.455Z,100155.38
2023-03-12T23:05:50.140Z,100147.47
2023-03-12T23:08:23.606Z,100138.09
2023-03-12T23:10:58.813Z,100129.47
2023-03-12T23:13:34.589Z,100116.91
2023-03-12T23:16:09.787Z,100111.06
2023-03-12T23:18:45.876Z,100114.59
2023-03-12T23:21:21.340Z,100091.13
2023-03-12T23:23:54.341Z,100098.53
2023-03-12T23:26:30.763Z,100089.19
2023-03-12T23:29:03.915Z,100079.34
2023-03-12T23:31:36.643Z,100077.84
2023-03-12T23:34:11.429Z,100059.00
2023-03-12T23:36:46.015Z,100050.84
2023-03-12T23:39:18.915Z,100030.13
2023-03-12T23:41:51.545Z,100030.91
2023-03-12T23:44:24.383Z,100022.34
2023-03-12T23:46:57.190Z,100027.81
2023-03-12T23:49:31.301Z,100004.69
2023-03-12T23:52:04.329Z,100003.50
2023-03-12T23:54:37.230Z,99992.50
2023-03-12T23:57:09.982Z,99977.28
2023-03-12T23:59:42.812Z,99972.19
